KDED/DED METAR and TAF weather

Enter ICAO airport designator
Station Type Date Time Source
KDED METAR 2021/01/27 13:35 UTC NOAA

KDED 271335Z AUTO 00000KT 2 1/2SM BR OVC002 17/16 A3006 RMK AO2 T01650164


Station Type Date Time Source
KDED Decoded METAR 2021/01/27 13:35 UTC NOAA

Station name not available
Jan 27, 2021 - 08:35 AM EST / 2021.01.27 1335 UTC
Wind: Calm:0
Visibility: 2 1/2 mile(s):0
Sky conditions: overcast
Weather: mist
Temperature: 61.7 F (16.5 C)
Dew Point: 61.5 F (16.4 C)
Relative Humidity: 99%
Pressure (altimeter): 30.06 in. Hg (1017 hPa)
ob: KDED 271335Z AUTO 00000KT 2 1/2SM BR OVC002 17/16 A3006 RMK AO2 T01650164
cycle: 13

Station Type Date Time Source
KDED TAF UTC NOAA

Error!

Example: see airport list